Time;durP1;ratioP1;P1;durP2;ratioP2;P2;SDS_P1;SDS_P2;PMS_P1;PMS_P2;Temp;Humidity;BMP_temperature;BMP_pressure;BME280_temperature;BME280_humidity;BME280_pressure;Samples;Min_cycle;Max_cycle;Signal;HPM_P1;HPM_P2
2021/08/23 00:01:08;;;;;;;;;21.00;19.00;;;;;25.28;55.19;98727.31;6179342;28;97576;-60
2021/08/23 00:04:11;;;;;;;;;18.60;16.60;;;;;25.21;55.45;98727.00;6172410;28;97196;-59
2021/08/23 00:07:15;;;;;;;;;20.50;20.00;;;;;25.19;55.57;98719.03;6176451;28;99580;-59
2021/08/23 00:10:18;;;;;;;;;18.75;17.50;;;;;25.21;54.88;98715.97;6171438;28;97607;-60
2021/08/23 00:13:23;;;;;;;;;17.75;16.75;;;;;25.26;55.10;98713.03;6156780;28;97710;-61
2021/08/23 00:16:26;;;;;;;;;19.40;16.00;;;;;25.23;54.75;98711.72;6182010;28;97485;-63
2021/08/23 00:19:32;;;;;;;;;16.60;15.60;;;;;25.20;54.81;98709.63;6179812;28;97266;-62
2021/08/23 02:19:07;;;;;;;;;17.00;16.40;;;;;24.88;56.44;98660.38;7074814;23;98882;-60
2021/08/23 02:22:12;;;;;;;;;18.40;18.00;;;;;24.84;56.75;98654.66;6066540;28;99203;-61
2021/08/23 02:25:21;;;;;;;;;18.60;17.60;;;;;24.82;56.79;98651.44;6046280;28;97551;-60
2021/08/23 02:28:25;;;;;;;;;17.00;17.00;;;;;24.78;56.97;98647.66;6058321;28;96662;-62
2021/08/23 02:31:29;;;;;;;;;20.40;18.00;;;;;24.75;57.00;98633.72;6056067;28;97150;-60
2021/08/23 02:34:33;;;;;;;;;16.50;15.50;;;;;24.75;57.00;98636.47;6066703;28;96745;-60
2021/08/23 02:37:37;;;;;;;;;17.00;15.60;;;;;24.75;57.43;98634.53;6053571;28;97498;-59
2021/08/23 02:40:41;;;;;;;;;18.40;18.00;;;;;24.74;57.22;98632.91;6057910;28;96835;-61
2021/08/23 02:43:44;;;;;;;;;17.80;16.80;;;;;24.72;57.14;98643.44;6046356;28;97498;-60
2021/08/23 03:16:02;;;;;;;;;15.60;15.60;;;;;24.67;57.16;98629.00;6044438;28;96359;-60
2021/08/23 03:48:20;;;;;;;;;14.40;13.40;;;;;24.64;57.43;98629.63;6092529;23;97070;-58
2021/08/23 03:51:24;;;;;;;;;14.75;14.00;;;;;24.61;57.24;98625.56;6089177;28;96714;-61
2021/08/23 03:54:27;;;;;;;;;15.00;14.00;;;;;24.63;57.42;98631.56;6093461;28;97567;-59
2021/08/23 03:57:32;;;;;;;;;16.00;15.00;;;;;24.63;57.42;98641.81;6088475;28;97450;-61
2021/08/23 04:00:36;;;;;;;;;16.00;15.00;;;;;24.64;57.64;98640.66;6079902;28;97583;-61
2021/08/23 04:03:41;;;;;;;;;15.40;15.40;;;;;24.59;57.61;98644.38;6053871;28;97787;-61
2021/08/23 04:06:46;;;;;;;;;15.75;15.75;;;;;24.56;57.48;98642.25;6089363;28;96557;-61
2021/08/23 04:09:50;;;;;;;;;16.60;15.00;;;;;24.47;57.52;98633.97;6092952;28;97263;-60
2021/08/23 04:12:53;;;;;;;;;16.60;14.00;;;;;24.44;57.60;98642.03;6094021;28;96571;-60
2021/08/23 04:15:56;;;;;;;;;17.00;15.00;;;;;24.46;57.86;98640.59;6079731;28;97160;-60
2021/08/23 04:19:01;;;;;;;;;16.00;13.20;;;;;24.43;58.01;98648.69;6076085;28;97843;-59
2021/08/23 04:22:04;;;;;;;;;16.00;15.00;;;;;24.31;57.89;98641.03;6070923;28;97247;-59
2021/08/23 04:25:09;;;;;;;;;14.20;13.40;;;;;24.41;58.06;98646.25;6066761;28;96547;-60
2021/08/23 04:28:12;;;;;;;;;16.00;15.50;;;;;24.40;58.11;98655.66;6064924;28;98257;-60
2021/08/23 04:31:16;;;;;;;;;15.20;13.80;;;;;24.43;57.64;98663.28;6066189;28;97526;-60
2021/08/23 04:34:21;;;;;;;;;17.40;15.40;;;;;24.49;57.63;98667.50;6065295;28;97481;-62
2021/08/23 04:37:25;;;;;;;;;14.20;12.20;;;;;24.58;57.54;98676.63;6052379;28;96998;-59
2021/08/23 04:40:28;;;;;;;;;17.00;16.00;;;;;24.64;57.47;98682.00;6040406;28;98609;-61
2021/08/23 04:43:31;;;;;;;;;16.40;15.00;;;;;24.51;57.56;98653.41;6059627;28;97734;-60
2021/08/23 05:16:36;;;;;;;;;14.40;14.00;;;;;24.28;57.95;98734.53;6059905;28;98824;-59
2021/08/23 05:19:39;;;;;;;;;13.25;13.00;;;;;24.25;58.02;98735.13;6066745;28;97710;-59
2021/08/23 05:22:43;;;;;;;;;15.40;14.00;;;;;24.17;58.10;98748.56;6053448;28;97498;-58
2021/08/23 05:25:46;;;;;;;;;12.40;11.40;;;;;24.13;58.48;98742.03;6038994;28;97570;-58
2021/08/23 05:28:49;;;;;;;;;12.20;12.00;;;;;24.12;58.24;98743.13;6049561;28;96585;-60
2021/08/23 05:31:55;;;;;;;;;12.00;12.00;;;;;23.94;58.63;98743.34;6053779;28;97459;-60
2021/08/23 05:34:58;;;;;;;;;9.75;9.25;;;;;23.79;58.78;98735.44;6072661;28;97480;-59
2021/08/23 05:38:02;;;;;;;;;11.00;11.00;;;;;23.84;59.10;98743.56;6067811;28;96862;-58
2021/08/23 05:41:07;;;;;;;;;9.00;9.00;;;;;23.87;58.91;98740.19;6068989;28;97494;-58
2021/08/23 05:44:10;;;;;;;;;10.00;10.00;;;;;23.95;59.24;98740.25;6067672;28;97123;-58
2021/08/23 05:47:15;;;;;;;;;12.00;11.00;;;;;24.05;58.73;98730.91;6065086;28;96772;-59
2021/08/23 05:50:19;;;;;;;;;9.00;8.00;;;;;24.03;58.50;98738.69;6068028;28;97058;-58
2021/08/23 05:53:22;;;;;;;;;10.00;10.00;;;;;24.10;58.42;98739.06;6067510;28;96606;-58
2021/08/23 05:56:25;;;;;;;;;13.00;11.00;;;;;24.19;58.51;98748.22;6067192;28;97815;-58
2021/08/23 05:59:29;;;;;;;;;11.00;10.00;;;;;24.27;58.36;98741.97;6065513;28;97378;-61
2021/08/23 06:02:33;;;;;;;;;9.50;9.00;;;;;24.27;58.15;98741.16;6063756;28;97502;-58
2021/08/23 06:15:42;;;;;;;;;13.20;12.00;;;;;24.40;58.00;98765.88;6067363;28;96531;-60
2021/08/23 06:18:47;;;;;;;;;12.40;12.00;;;;;24.39;58.10;98771.69;6044229;28;97478;-60
2021/08/23 06:21:50;;;;;;;;;11.60;10.20;;;;;24.34;58.38;98777.31;6065660;28;97445;-61
2021/08/23 06:24:53;;;;;;;;;13.50;12.00;;;;;24.35;58.35;98782.53;6066386;28;97616;-63
2021/08/23 06:27:59;;;;;;;;;11.00;11.00;;;;;24.29;58.44;98777.47;6067090;28;97203;-60
2021/08/23 06:31:02;;;;;;;;;11.40;10.00;;;;;24.32;58.54;98771.31;6067666;28;97498;-61
2021/08/23 06:34:07;;;;;;;;;12.40;11.00;;;;;24.38;58.39;98781.09;6066179;28;98659;-61
2021/08/23 06:37:11;;;;;;;;;9.00;7.60;;;;;24.30;57.65;98785.41;6066033;28;97061;-61
2021/08/23 06:40:16;;;;;;;;;9.00;9.00;;;;;24.25;57.66;98784.72;6066342;28;97534;-61
2021/08/23 06:43:19;;;;;;;;;8.00;8.00;;;;;24.24;57.09;98783.13;6068068;28;98123;-61
2021/08/23 06:46:23;;;;;;;;;6.60;5.00;;;;;24.14;56.89;98784.94;6065879;28;97984;-60
2021/08/23 06:49:28;;;;;;;;;7.00;6.00;;;;;23.93;57.11;98778.31;6065481;28;97129;-60
2021/08/23 06:52:32;;;;;;;;;5.40;5.40;;;;;23.93;56.78;98780.25;6056712;28;97425;-59
2021/08/23 06:55:35;;;;;;;;;8.00;7.00;;;;;24.01;56.46;98783.06;6050529;28;97345;-61
2021/08/23 06:58:38;;;;;;;;;5.80;4.80;;;;;23.95;56.63;98780.72;6048349;28;97470;-61
2021/08/23 07:01:42;;;;;;;;;6.00;6.00;;;;;23.95;56.48;98777.97;6044996;28;96752;-59
2021/08/23 07:04:49;;;;;;;;;6.00;6.00;;;;;23.86;56.60;98777.91;6066077;28;97475;-61
2021/08/23 07:07:52;;;;;;;;;5.00;4.50;;;;;23.76;56.92;98764.38;6063860;28;97411;-60
2021/08/23 07:10:58;;;;;;;;;6.00;6.00;;;;;23.83;57.00;98767.53;6064030;28;97435;-60
2021/08/23 07:14:04;;;;;;;;;6.50;6.00;;;;;23.79;57.02;98761.03;6060201;28;97133;-60
2021/08/23 07:17:08;;;;;;;;;5.00;4.00;;;;;23.80;57.19;98764.59;6045317;28;97431;-59
2021/08/23 07:20:13;;;;;;;;;5.50;5.50;;;;;23.79;57.24;98762.97;6054403;28;97623;-60
2021/08/23 07:23:17;;;;;;;;;5.00;5.00;;;;;23.75;57.12;98766.31;6064753;28;98306;-61
2021/08/23 07:26:20;;;;;;;;;6.00;4.00;;;;;23.70;57.16;98771.16;6064734;28;97480;-62
2021/08/23 07:29:25;;;;;;;;;4.00;4.00;;;;;23.71;57.33;98768.06;6053466;28;96714;-60
2021/08/23 07:32:28;;;;;;;;;5.40;4.60;;;;;23.68;57.72;98771.44;6063735;28;96917;-61
2021/08/23 07:35:33;;;;;;;;;4.80;4.80;;;;;23.78;57.08;98769.59;6063168;28;97377;-59
2021/08/23 07:38:36;;;;;;;;;5.60;4.60;;;;;23.75;57.15;98774.56;6066910;28;97390;-59
2021/08/23 07:41:40;;;;;;;;;4.00;4.00;;;;;23.81;57.57;98778.03;6064803;28;96914;-61
2021/08/23 07:44:43;;;;;;;;;6.00;5.40;;;;;23.84;57.21;98771.94;6064521;28;97406;-61
2021/08/23 07:47:46;;;;;;;;;4.00;4.00;;;;;23.85;57.33;98765.25;6065830;28;96636;-62
2021/08/23 07:50:52;;;;;;;;;5.00;4.00;;;;;23.81;57.40;98761.50;6065077;28;96823;-62
2021/08/23 07:53:55;;;;;;;;;4.60;4.00;;;;;23.81;57.13;98760.69;6066490;28;97166;-60
2021/08/23 07:56:58;;;;;;;;;5.25;5.00;;;;;23.90;57.34;98761.56;6053638;28;96895;-62
2021/08/23 08:00:02;;;;;;;;;5.80;5.00;;;;;23.90;57.19;98767.09;6058836;28;96776;-61
2021/08/23 08:03:14;;;;;;;;;6.00;5.75;;;;;23.96;57.61;98771.34;6066663;28;96606;-61
2021/08/23 08:06:19;;;;;;;;;7.00;6.00;;;;;23.88;57.44;98742.63;6031478;28;98460;-60
2021/08/23 08:09:22;;;;;;;;;6.00;5.00;;;;;24.07;57.10;98776.31;6059281;28;96566;-60
2021/08/23 08:12:25;;;;;;;;;6.00;6.00;;;;;24.14;57.14;98775.88;6060865;28;97451;-60
2021/08/23 08:15:29;;;;;;;;;6.00;5.00;;;;;23.91;56.72;98731.00;6064386;28;97277;-61
2021/08/23 08:18:33;;;;;;;;;6.00;5.20;;;;;24.26;56.96;98789.94;6064458;28;96855;-60
2021/08/23 08:21:38;;;;;;;;;5.00;4.60;;;;;24.33;57.15;98776.53;6060054;28;97189;-62
2021/08/23 08:24:41;;;;;;;;;6.00;5.20;;;;;24.42;56.63;98779.34;6062698;28;97105;-60
2021/08/23 08:27:45;;;;;;;;;5.00;5.00;;;;;24.47;56.13;98776.44;6065261;28;96759;-60
2021/08/23 08:30:48;;;;;;;;;5.67;4.67;;;;;24.41;55.60;98773.00;6065319;28;97414;-59
2021/08/23 08:33:52;;;;;;;;;5.00;4.40;;;;;24.34;55.49;98772.63;6066520;28;96890;-61
2021/08/23 08:36:57;;;;;;;;;4.00;4.00;;;;;24.41;55.13;98777.72;6063668;28;97481;-62
2021/08/23 08:40:00;;;;;;;;;3.60;3.60;;;;;24.30;55.16;98777.16;6066910;28;96765;-62
2021/08/23 08:43:04;;;;;;;;;5.00;5.00;;;;;24.21;55.42;98784.53;6068962;28;97411;-60
2021/08/23 08:46:07;;;;;;;;;5.80;5.20;;;;;24.20;55.46;98787.59;6052875;28;98084;-59
2021/08/23 08:49:12;;;;;;;;;5.00;4.00;;;;;24.19;55.28;98789.53;6069494;28;97328;-60
2021/08/23 08:52:17;;;;;;;;;5.80;5.00;;;;;23.95;55.87;98762.28;6069532;28;97463;-60
2021/08/23 08:55:23;;;;;;;;;5.00;4.00;;;;;24.10;56.03;98794.13;6068847;28;97181;-60
2021/08/23 08:58:26;;;;;;;;;4.00;3.80;;;;;24.14;56.27;98792.41;6067930;28;96570;-60
2021/08/23 09:01:30;;;;;;;;;5.00;5.00;;;;;24.13;56.65;98786.09;6070202;28;96900;-61
2021/08/23 09:04:36;;;;;;;;;4.00;3.00;;;;;24.16;56.18;98791.00;6066180;28;97472;-61
2021/08/23 09:07:47;;;;;;;;;4.00;4.00;;;;;24.15;55.96;98792.06;6068712;28;96959;-61
2021/08/23 09:10:52;;;;;;;;;4.00;4.00;;;;;24.26;55.64;98791.88;6068824;28;97105;-62
2021/08/23 09:13:59;;;;;;;;;7.00;5.00;;;;;24.37;56.07;98791.31;6068664;28;97036;-60
2021/08/23 09:17:07;;;;;;;;;6.33;6.33;;;;;24.44;55.83;98786.16;6068316;28;97626;-60
2021/08/23 09:20:14;;;;;;;;;5.00;5.00;;;;;24.54;55.52;98796.91;6068802;28;96643;-61
2021/08/23 09:23:19;;;;;;;;;5.00;4.00;;;;;24.49;55.33;98798.97;6068693;28;97031;-61
2021/08/23 09:26:22;;;;;;;;;6.00;6.00;;;;;24.50;55.66;98798.69;6069277;28;96703;-60
2021/08/23 09:29:25;;;;;;;;;6.00;6.00;;;;;24.59;55.49;98787.69;6068408;28;97555;-60
2021/08/23 09:32:30;;;;;;;;;6.00;6.00;;;;;24.56;55.31;98793.84;6068460;28;96850;-61
2021/08/23 09:35:35;;;;;;;;;6.00;5.00;;;;;24.46;55.07;98794.09;6068392;28;97468;-61
2021/08/23 09:38:40;;;;;;;;;7.00;6.00;;;;;24.46;55.21;98796.88;6068568;28;97557;-61
2021/08/23 09:41:44;;;;;;;;;7.00;6.00;;;;;24.43;55.62;98787.31;6068898;28;97498;-59
2021/08/23 09:44:47;;;;;;;;;6.40;6.00;;;;;24.44;55.23;98790.84;6050172;28;97715;-60
2021/08/23 09:47:59;;;;;;;;;9.00;7.20;;;;;24.53;55.45;98794.50;6067058;28;98035;-61
2021/08/23 09:51:02;;;;;;;;;4.40;4.40;;;;;24.58;55.12;98791.59;6066925;28;97466;-61
2021/08/23 09:54:11;;;;;;;;;6.00;6.00;;;;;24.78;54.75;98790.22;6067780;28;97226;-61
2021/08/23 09:57:15;;;;;;;;;7.00;6.60;;;;;24.86;54.18;98793.03;6064636;28;97200;-60
2021/08/23 10:00:20;;;;;;;;;7.00;6.00;;;;;25.06;54.98;98791.69;6067786;28;96693;-61
2021/08/23 10:03:24;;;;;;;;;5.60;5.40;;;;;24.98;54.32;98787.75;6068567;28;97421;-60
2021/08/23 10:06:49;;;;;;;;;6.00;6.00;;;;;25.01;53.71;98784.38;6066022;28;97471;-60
2021/08/23 10:09:55;;;;;;;;;6.00;5.00;;;;;25.15;54.13;98784.25;6068177;28;97583;-61
2021/08/23 10:13:00;;;;;;;;;5.00;5.00;;;;;25.24;54.51;98784.28;6067706;28;96656;-61
2021/08/23 10:16:04;;;;;;;;;7.80;6.00;;;;;25.33;54.25;98780.41;6067488;28;97586;-61
2021/08/23 10:19:09;;;;;;;;;5.40;5.00;;;;;25.27;53.63;98786.38;6057324;28;96622;-62
2021/08/23 10:22:14;;;;;;;;;8.00;7.00;;;;;25.14;53.44;98768.84;6067309;28;97413;-62
2021/08/23 10:25:19;;;;;;;;;8.40;6.40;;;;;25.11;53.47;98788.78;6066237;28;97508;-60
2021/08/23 10:28:34;;;;;;;;;8.00;7.00;;;;;25.05;53.62;98787.31;6067662;28;96786;-60
2021/08/23 10:31:40;;;;;;;;;6.00;5.00;;;;;25.04;53.79;98793.94;6050505;28;96707;-61
2021/08/23 10:34:44;;;;;;;;;5.00;5.00;;;;;25.06;54.14;98788.94;6064616;28;96990;-60
2021/08/23 10:37:49;;;;;;;;;7.00;6.00;;;;;25.04;53.48;98793.94;6066799;28;97544;-60
2021/08/23 10:41:07;;;;;;;;;6.00;5.00;;;;;25.03;53.12;98792.31;6044928;28;98737;-62
2021/08/23 10:44:11;;;;;;;;;7.00;7.00;;;;;25.04;53.49;98791.19;6040032;28;98525;-60
2021/08/23 10:47:15;;;;;;;;;6.00;6.00;;;;;25.15;53.70;98802.75;6066097;28;97385;-59
2021/08/23 10:50:23;;;;;;;;;6.00;5.20;;;;;25.02;53.36;98796.22;6068263;28;97469;-59
2021/08/23 10:53:35;;;;;;;;;6.00;6.00;;;;;24.86;53.29;98797.75;6059147;28;97068;-61
2021/08/23 10:56:41;;;;;;;;;7.00;6.75;;;;;24.96;53.46;98803.00;6043754;28;96849;-60
2021/08/23 10:59:45;;;;;;;;;5.20;5.20;;;;;24.94;53.56;98806.09;6060021;28;96623;-60
2021/08/23 11:02:59;;;;;;;;;6.00;6.00;;;;;24.98;53.16;98796.03;6066319;28;97526;-59
2021/08/23 11:06:04;;;;;;;;;6.00;6.00;;;;;24.97;53.36;98793.63;6065280;28;96633;-61
2021/08/23 11:09:09;;;;;;;;;5.40;5.40;;;;;25.00;53.61;98785.50;6057451;28;98389;-60
2021/08/23 11:12:17;;;;;;;;;6.75;5.75;;;;;25.11;53.40;98794.31;6067519;28;97567;-61
2021/08/23 11:15:28;;;;;;;;;6.00;5.50;;;;;25.18;53.10;98785.56;6053344;28;97638;-59
2021/08/23 11:18:31;;;;;;;;;7.00;7.00;;;;;25.18;53.02;98777.28;6066034;28;97564;-60
2021/08/23 11:21:35;;;;;;;;;6.00;6.00;;;;;25.19;52.90;98774.22;6065823;28;98056;-60
2021/08/23 11:24:38;;;;;;;;;6.75;6.00;;;;;25.22;52.63;98778.25;6065737;28;96616;-60
2021/08/23 11:27:43;;;;;;;;;6.00;5.20;;;;;25.20;52.75;98764.00;6066027;28;97943;-61
2021/08/23 11:30:48;;;;;;;;;10.60;8.00;;;;;25.09;52.75;98766.22;6065643;28;97596;-61
2021/08/23 11:33:53;;;;;;;;;9.00;8.00;;;;;25.14;52.70;98774.34;6066738;28;97644;-59
2021/08/23 11:37:02;;;;;;;;;6.00;6.00;;;;;25.02;52.43;98774.16;6066340;28;97101;-59
2021/08/23 11:40:09;;;;;;;;;9.00;9.00;;;;;25.08;52.75;98763.78;6062615;28;97658;-59
2021/08/23 11:43:13;;;;;;;;;8.00;8.00;;;;;25.14;52.48;98762.50;6041942;28;97834;-61
2021/08/23 11:46:17;;;;;;;;;8.60;8.00;;;;;25.18;53.11;98767.06;6063874;28;97553;-60
2021/08/23 11:49:27;;;;;;;;;7.40;7.00;;;;;25.25;52.93;98769.34;6065370;28;97034;-61
2021/08/23 11:52:31;;;;;;;;;9.00;8.00;;;;;25.29;52.91;98768.41;6062409;28;97395;-60
2021/08/23 11:55:36;;;;;;;;;6.80;6.20;;;;;25.28;52.63;98765.94;6057409;28;97312;-59
2021/08/23 11:58:41;;;;;;;;;6.00;6.00;;;;;25.27;52.22;98759.63;6063278;28;96767;-59
2021/08/23 12:01:45;;;;;;;;;6.20;6.00;;;;;25.21;51.85;98738.03;6053168;28;97359;-61
2021/08/23 12:04:48;;;;;;;;;7.00;6.00;;;;;25.41;51.95;98762.25;6064312;28;97468;-61
2021/08/23 12:08:22;;;;;;;;;6.00;5.00;;;;;25.48;51.75;98768.09;6065353;28;97576;-61
2021/08/23 12:11:25;;;;;;;;;8.00;7.00;;;;;25.52;51.74;98774.59;6061799;28;98352;-60
2021/08/23 12:14:30;;;;;;;;;7.00;6.00;;;;;25.53;51.55;98767.94;6066796;28;97522;-58
2021/08/23 12:17:34;;;;;;;;;8.00;7.00;;;;;25.55;51.96;98771.25;6069761;28;96683;-60
2021/08/23 12:20:38;;;;;;;;;7.00;6.40;;;;;25.63;51.85;98769.63;6069243;28;96712;-60
2021/08/23 12:23:52;;;;;;;;;7.00;6.00;;;;;25.67;52.11;98763.13;6050782;28;99808;-59
2021/08/23 12:26:57;;;;;;;;;5.25;5.00;;;;;25.66;51.72;98772.53;6073357;28;97638;-58
2021/08/23 12:30:03;;;;;;;;;7.00;6.50;;;;;25.77;51.20;98767.50;6057662;28;97747;-59
2021/08/23 12:33:16;;;;;;;;;6.00;6.00;;;;;25.82;51.08;98759.88;6062019;28;97480;-58
2021/08/23 12:36:19;;;;;;;;;6.00;5.00;;;;;25.90;50.83;98763.00;6068582;28;96709;-58
2021/08/23 12:39:23;;;;;;;;;5.80;5.20;;;;;25.93;51.01;98754.84;6066887;28;97586;-60
2021/08/23 12:42:26;;;;;;;;;7.00;6.00;;;;;25.96;50.72;98751.44;6068754;28;96532;-60
2021/08/23 12:45:30;;;;;;;;;8.50;6.50;;;;;26.02;50.06;98750.13;6068503;28;96900;-60
2021/08/23 12:48:34;;;;;;;;;6.00;6.00;;;;;26.11;49.81;98739.88;6066727;28;97396;-59
2021/08/23 12:51:39;;;;;;;;;6.25;6.00;;;;;26.23;49.95;98737.31;6062090;28;97276;-60
2021/08/23 12:54:42;;;;;;;;;7.00;7.00;;;;;26.35;49.47;98744.09;6066819;28;97511;-61
2021/08/23 12:57:45;;;;;;;;;6.00;6.00;;;;;26.49;48.11;98737.22;6064988;28;97514;-61
2021/08/23 13:00:52;;;;;;;;;5.75;5.75;;;;;26.93;48.02;98747.00;6065065;28;97705;-60
2021/08/23 13:03:56;;;;;;;;;6.60;6.00;;;;;27.26;48.76;98741.66;6048793;28;98519;-60
2021/08/23 13:06:59;;;;;;;;;7.60;7.60;;;;;27.28;47.07;98739.34;6042790;28;97588;-60
2021/08/23 13:10:04;;;;;;;;;4.20;4.00;;;;;27.32;46.55;98742.28;6065463;28;97539;-59
2021/08/23 13:13:09;;;;;;;;;6.00;5.40;;;;;27.38;47.38;98740.91;6048000;28;97783;-60
2021/08/23 13:16:14;;;;;;;;;6.20;5.80;;;;;27.52;46.46;98728.47;6064862;28;97509;-60
2021/08/23 13:19:18;;;;;;;;;5.40;5.00;;;;;27.73;46.51;98735.97;6057681;28;97545;-59
2021/08/23 13:22:21;;;;;;;;;6.20;6.00;;;;;27.96;45.92;98726.16;6065117;28;97497;-60
2021/08/23 13:25:24;;;;;;;;;5.00;5.00;;;;;28.07;44.58;98732.09;6063980;28;96617;-60
2021/08/23 13:28:28;;;;;;;;;7.00;4.40;;;;;28.13;44.42;98734.34;6064530;28;97045;-59
2021/08/23 13:31:35;;;;;;;;;4.20;4.20;;;;;28.17;45.20;98738.06;6053092;28;97493;-59
2021/08/23 13:34:39;;;;;;;;;7.00;7.00;;;;;28.04;44.33;98711.44;6062572;28;98153;-60
2021/08/23 13:37:42;;;;;;;;;6.80;6.80;;;;;28.19;44.76;98734.94;6065619;28;97573;-59
2021/08/23 13:40:48;;;;;;;;;5.00;5.00;;;;;28.36;43.94;98735.56;6065192;28;96602;-60
2021/08/23 13:43:52;;;;;;;;;6.00;5.00;;;;;28.46;43.02;98723.25;6064387;28;96857;-62
2021/08/23 13:46:56;;;;;;;;;6.00;5.25;;;;;28.67;42.75;98718.44;6066636;28;97496;-59
2021/08/23 13:50:00;;;;;;;;;7.00;7.00;;;;;28.83;43.43;98724.16;6062821;28;97775;-61
2021/08/23 13:53:05;;;;;;;;;5.00;4.00;;;;;28.78;41.80;98727.94;6078649;28;96782;-61
2021/08/23 13:56:09;;;;;;;;;6.80;6.80;;;;;28.83;42.22;98718.59;6066416;28;97013;-61
2021/08/23 13:59:13;;;;;;;;;7.00;6.00;;;;;28.80;42.61;98722.03;6053629;28;97591;-60
2021/08/23 14:02:17;;;;;;;;;7.60;7.00;;;;;28.70;42.50;98728.81;6054124;28;97011;-59
2021/08/23 14:05:21;;;;;;;;;8.00;7.00;;;;;28.62;42.50;98726.16;6067658;28;96641;-61
2021/08/23 14:08:25;;;;;;;;;6.00;6.00;;;;;28.50;43.23;98728.91;6052630;28;96689;-63
2021/08/23 14:11:28;;;;;;;;;8.00;6.00;;;;;28.43;43.17;98724.75;6068348;28;96617;-59
2021/08/23 14:14:31;;;;;;;;;6.00;6.00;;;;;28.37;43.63;98720.56;6066553;28;97459;-60
2021/08/23 14:17:38;;;;;;;;;5.50;5.50;;;;;28.30;43.69;98720.31;6066878;28;96919;-60
2021/08/23 14:20:42;;;;;;;;;7.00;7.00;;;;;28.20;44.24;98740.13;6065282;28;98768;-60
2021/08/23 14:23:45;;;;;;;;;8.80;8.00;;;;;28.07;44.21;98732.91;6045853;28;96666;-61
2021/08/23 14:26:49;;;;;;;;;6.00;6.00;;;;;28.02;44.50;98738.66;6060344;28;97541;-61
2021/08/23 14:29:52;;;;;;;;;8.40;7.40;;;;;27.91;44.74;98741.03;6059361;28;96597;-61
2021/08/23 14:32:57;;;;;;;;;7.40;5.60;;;;;27.78;45.54;98746.84;6068491;28;97309;-60
2021/08/23 14:36:00;;;;;;;;;7.25;6.25;;;;;27.67;46.10;98749.22;6067570;28;97268;-61
2021/08/23 14:39:04;;;;;;;;;7.00;7.00;;;;;27.55;46.96;98749.16;6065633;28;97328;-61
2021/08/23 14:42:07;;;;;;;;;6.00;6.00;;;;;27.25;48.10;98739.22;6067918;28;97916;-63
2021/08/23 14:45:11;;;;;;;;;5.40;5.40;;;;;27.04;47.39;98739.97;6080678;28;96524;-60
2021/08/23 14:48:16;;;;;;;;;6.75;6.75;;;;;26.81;49.21;98726.72;6042965;28;96786;-60
2021/08/23 14:51:19;;;;;;;;;4.50;4.50;;;;;26.54;48.97;98723.22;6057574;28;97003;-60
2021/08/23 14:54:23;;;;;;;;;6.00;5.00;;;;;26.32;49.27;98723.47;6064607;28;98390;-59
2021/08/23 14:57:26;;;;;;;;;4.80;4.80;;;;;26.23;49.52;98725.44;6066158;28;97527;-61
2021/08/23 15:00:30;;;;;;;;;5.00;5.00;;;;;26.11;49.85;98716.97;6063104;28;96617;-60
2021/08/23 15:03:35;;;;;;;;;6.00;4.40;;;;;26.10;49.75;98716.16;6065431;28;97991;-61
2021/08/23 15:06:39;;;;;;;;;6.00;5.50;;;;;26.09;50.50;98713.72;6066802;28;97557;-62
2021/08/23 15:09:43;;;;;;;;;4.60;4.00;;;;;26.01;49.79;98714.53;6061120;28;97290;-61
2021/08/23 15:12:46;;;;;;;;;3.50;3.00;;;;;25.95;49.89;98716.66;6067016;28;97475;-59
2021/08/23 15:15:50;;;;;;;;;4.00;4.00;;;;;25.97;50.20;98710.81;6067302;28;97390;-61
2021/08/23 15:18:55;;;;;;;;;4.20;3.00;;;;;26.00;50.17;98712.94;6065894;28;97451;-61
2021/08/23 15:21:58;;;;;;;;;3.00;3.00;;;;;25.99;50.05;98714.06;6066641;28;96559;-61
2021/08/23 15:25:02;;;;;;;;;4.00;3.60;;;;;25.84;49.98;98691.34;6066464;28;96534;-61
2021/08/23 15:28:06;;;;;;;;;3.00;3.00;;;;;26.01;49.87;98709.00;6067198;28;97232;-59
2021/08/23 15:31:10;;;;;;;;;2.20;2.20;;;;;26.02;49.94;98705.13;6051961;28;97135;-60
2021/08/23 15:34:15;;;;;;;;;5.00;4.00;;;;;25.96;49.75;98726.56;6063387;28;97035;-59
2021/08/23 15:37:22;;;;;;;;;3.00;3.00;;;;;25.97;50.20;98711.63;6066534;28;96635;-60
2021/08/23 15:40:26;;;;;;;;;4.00;4.00;;;;;25.95;49.38;98700.06;6065321;28;96737;-62
2021/08/23 15:43:31;;;;;;;;;5.00;4.00;;;;;25.98;49.61;98704.16;6066628;28;97473;-60
2021/08/23 15:46:34;;;;;;;;;5.00;5.00;;;;;26.00;49.08;98701.88;6064339;28;97457;-61
2021/08/23 15:49:39;;;;;;;;;5.00;5.00;;;;;25.92;49.40;98694.41;6064600;28;97009;-61
2021/08/23 15:52:42;;;;;;;;;5.00;4.00;;;;;25.91;49.54;98684.50;6064147;28;97488;-61
2021/08/23 15:55:47;;;;;;;;;4.75;4.75;;;;;25.90;49.93;98680.94;6065946;28;96683;-59
2021/08/23 15:58:50;;;;;;;;;5.40;5.00;;;;;25.87;49.88;98693.44;6062545;28;96639;-61
2021/08/23 16:01:53;;;;;;;;;4.00;4.00;;;;;25.77;49.89;98691.00;6065717;28;96663;-61
2021/08/23 16:04:58;;;;;;;;;5.00;5.00;;;;;25.76;50.17;98691.31;6065904;28;97266;-59
2021/08/23 16:08:02;;;;;;;;;6.00;5.00;;;;;25.72;50.45;98682.06;6056875;28;97196;-60
2021/08/23 16:11:08;;;;;;;;;4.00;4.00;;;;;25.70;50.48;98690.72;6065669;28;97981;-60
2021/08/23 16:14:12;;;;;;;;;4.00;4.00;;;;;25.70;50.53;98685.19;6066465;28;97447;-61
2021/08/23 16:17:15;;;;;;;;;7.00;6.00;;;;;25.68;50.45;98681.09;6049913;28;98874;-61
2021/08/23 16:20:20;;;;;;;;;6.00;5.00;;;;;25.71;50.95;98684.03;6065698;28;96751;-61
2021/08/23 16:23:23;;;;;;;;;6.00;4.67;;;;;25.65;51.31;98682.59;6057619;28;97154;-59
2021/08/23 16:26:27;;;;;;;;;5.00;5.00;;;;;25.61;51.74;98687.09;6060122;28;96691;-59
2021/08/23 16:29:30;;;;;;;;;6.00;6.00;;;;;25.52;52.23;98678.00;6065262;28;96455;-61
2021/08/23 16:32:34;;;;;;;;;7.00;6.00;;;;;25.30;52.33;98645.84;6064625;28;96694;-61
2021/08/23 16:35:40;;;;;;;;;5.00;4.80;;;;;25.44;52.52;98681.56;6054388;28;97665;-60
2021/08/23 16:38:43;;;;;;;;;7.40;5.80;;;;;25.42;52.86;98681.06;6061300;28;98013;-58
2021/08/23 16:41:47;;;;;;;;;5.00;5.00;;;;;25.46;52.68;98674.56;6066714;28;96834;-60
2021/08/23 16:44:51;;;;;;;;;6.60;6.00;;;;;25.51;52.61;98681.09;6061853;28;96929;-58
2021/08/23 16:47:54;;;;;;;;;6.00;6.00;;;;;25.57;53.25;98685.31;6055179;28;97175;-61
2021/08/23 16:50:59;;;;;;;;;8.00;8.00;;;;;25.54;52.66;98692.28;6064064;28;97543;-61
2021/08/23 16:54:04;;;;;;;;;6.00;6.00;;;;;25.57;52.57;98688.91;6065227;28;97902;-60
2021/08/23 16:57:07;;;;;;;;;6.40;5.80;;;;;25.59;52.56;98694.09;6064853;28;97867;-59
2021/08/23 17:00:13;;;;;;;;;6.00;5.40;;;;;25.58;52.85;98695.22;6066655;28;97463;-61
2021/08/23 17:03:16;;;;;;;;;8.00;7.00;;;;;25.58;52.62;98685.00;6049418;28;97378;-60
2021/08/23 17:06:21;;;;;;;;;6.60;6.00;;;;;25.58;53.10;98687.78;6065319;28;98247;-61
2021/08/23 17:09:25;;;;;;;;;8.00;8.00;;;;;25.53;52.58;98692.59;6069149;28;97144;-59
2021/08/23 17:12:28;;;;;;;;;7.00;6.00;;;;;25.51;52.69;98687.41;6068282;28;97022;-61
2021/08/23 17:15:32;;;;;;;;;6.00;6.00;;;;;25.49;53.19;98695.22;6055235;28;96434;-61
2021/08/23 17:18:38;;;;;;;;;5.00;5.00;;;;;25.48;52.34;98696.34;6071055;28;97839;-61
2021/08/23 17:21:43;;;;;;;;;6.20;6.00;;;;;25.45;52.58;98708.03;6082111;28;97734;-59
2021/08/23 17:24:46;;;;;;;;;7.00;7.00;;;;;25.38;52.82;98714.03;6084113;28;97472;-61
2021/08/23 17:27:50;;;;;;;;;6.25;5.25;;;;;25.37;52.34;98714.34;6081962;28;96717;-60
2021/08/23 17:30:54;;;;;;;;;6.50;6.50;;;;;25.36;52.68;98721.81;6076758;28;96718;-62
2021/08/23 17:33:57;;;;;;;;;6.40;6.40;;;;;25.36;53.58;98718.25;6086224;28;96855;-59
2021/08/23 17:37:02;;;;;;;;;6.60;5.20;;;;;25.36;53.81;98713.53;6076836;28;96434;-61
2021/08/23 17:40:07;;;;;;;;;6.80;6.20;;;;;25.36;53.58;98718.25;6078220;28;96667;-62
2021/08/23 17:43:10;;;;;;;;;8.00;7.00;;;;;25.36;53.42;98719.03;6086139;28;97099;-60
2021/08/23 17:46:14;;;;;;;;;6.20;6.00;;;;;25.37;53.43;98714.34;6058936;28;97093;-59
2021/08/23 17:49:17;;;;;;;;;8.00;7.00;;;;;25.34;53.41;98715.00;6061474;28;97766;-62
2021/08/23 17:52:22;;;;;;;;;7.00;7.00;;;;;25.31;53.07;98713.72;6076850;28;97426;-61
2021/08/23 17:55:25;;;;;;;;;5.00;5.00;;;;;25.30;52.97;98714.03;6084048;28;97490;-63
2021/08/23 17:58:29;;;;;;;;;6.00;6.00;;;;;25.29;52.22;98715.16;6067174;28;97738;-62